Time;durP1;ratioP1;P1;durP2;ratioP2;P2;SDS_P1;SDS_P2;PMS_P1;PMS_P2;Temp;Humidity;BMP_temperature;BMP_pressure;BME280_temperature;BME280_humidity;BME280_pressure;Samples;Min_cycle;Max_cycle;Signal;HPM_P1;HPM_P2
2021/05/07 00:00:59;;;;;;;21.67;18.52;;;23.30;46.20;;;;;;4421627;60;21497;-26
2021/05/07 00:06:04;;;;;;;19.48;17.00;;;23.40;46.30;;;;;;4430114;60;21060;-24
2021/05/07 00:11:07;;;;;;;21.20;18.05;;;23.30;46.20;;;;;;4408031;60;21555;-23
2021/05/07 00:16:08;;;;;;;19.83;17.50;;;23.30;46.20;;;;;;4404168;60;21085;-26
2021/05/07 00:21:09;;;;;;;19.62;16.75;;;23.30;46.20;;;;;;4406926;60;21044;-26
2021/05/07 00:26:11;;;;;;;21.20;17.42;;;23.30;46.20;;;;;;4404228;60;21510;-26
2021/05/07 00:31:12;;;;;;;20.15;17.23;;;23.30;46.20;;;;;;4392094;60;21490;-24
2021/05/07 00:36:13;;;;;;;18.92;16.85;;;23.30;46.20;;;;;;4427278;60;21024;-24
2021/05/07 00:41:14;;;;;;;19.42;17.12;;;23.30;46.20;;;;;;4463029;60;21481;-27
2021/05/07 00:46:14;;;;;;;19.33;16.73;;;23.30;46.20;;;;;;4393400;60;21099;-26
2021/05/07 00:51:15;;;;;;;19.80;16.67;;;23.30;46.20;;;;;;4401235;60;21047;-26
2021/05/07 00:56:16;;;;;;;19.45;16.67;;;23.30;46.20;;;;;;4404857;60;21036;-26
2021/05/07 01:01:17;;;;;;;18.50;16.48;;;23.30;46.30;;;;;;4449508;60;21083;-25
2021/05/07 01:06:18;;;;;;;18.15;16.20;;;23.30;46.20;;;;;;4436586;60;21526;-25
2021/05/07 01:11:19;;;;;;;18.08;15.43;;;23.30;46.30;;;;;;4427582;60;21051;-25
2021/05/07 01:16:23;;;;;;;20.80;17.62;;;23.30;46.20;;;;;;4417827;60;21100;-25
2021/05/07 01:21:23;;;;;;;18.70;15.57;;;23.30;46.20;;;;;;4426122;60;21138;-25
2021/05/07 01:26:24;;;;;;;16.75;14.68;;;23.30;46.20;;;;;;4395256;60;22030;-24
2021/05/07 01:31:25;;;;;;;17.77;15.88;;;23.30;46.30;;;;;;4389570;60;21067;-27
2021/05/07 01:36:26;;;;;;;17.48;15.25;;;23.30;46.20;;;;;;4419882;60;21028;-25
2021/05/07 01:41:27;;;;;;;17.58;15.50;;;23.30;46.30;;;;;;4397561;60;21119;-25
2021/05/07 01:46:28;;;;;;;17.08;15.25;;;23.30;46.90;;;;;;4400778;60;21072;-20
2021/05/07 01:51:28;;;;;;;16.40;13.98;;;23.30;46.20;;;;;;4413313;60;21039;-25
2021/05/07 01:56:29;;;;;;;17.50;14.87;;;23.30;46.20;;;;;;4387629;64;21067;-25
2021/05/07 02:01:30;;;;;;;16.40;14.65;;;23.30;46.20;;;;;;4407174;60;21032;-24
2021/05/07 02:06:31;;;;;;;16.23;14.45;;;23.30;46.20;;;;;;4475838;60;21113;-25
2021/05/07 02:11:32;;;;;;;18.62;15.48;;;23.30;46.20;;;;;;4418973;60;21533;-24
2021/05/07 02:16:32;;;;;;;15.35;13.65;;;23.30;46.30;;;;;;4409683;60;21586;-23
2021/05/07 02:21:33;;;;;;;16.80;15.00;;;23.30;46.30;;;;;;4428469;60;21055;-22
2021/05/07 02:26:34;;;;;;;16.40;14.13;;;23.30;46.30;;;;;;4399484;60;21088;-25
2021/05/07 02:31:36;;;;;;;16.98;13.80;;;23.30;46.30;;;;;;4445251;60;21529;-24
2021/05/07 02:36:38;;;;;;;16.73;14.27;;;23.30;46.30;;;;;;4475700;60;21036;-22
2021/05/07 02:41:38;;;;;;;17.00;13.75;;;23.30;46.30;;;;;;4424654;60;21127;-25
2021/05/07 02:46:39;;;;;;;15.73;13.45;;;23.30;46.20;;;;;;4433177;60;21063;-21
2021/05/07 02:51:40;;;;;;;15.93;13.18;;;23.30;46.30;;;;;;4408490;60;21043;-23
2021/05/07 02:56:41;;;;;;;15.13;13.15;;;23.30;46.30;;;;;;4422516;60;21060;-24
2021/05/07 03:01:42;;;;;;;14.77;12.77;;;23.30;46.40;;;;;;4408101;60;21068;-24
2021/05/07 03:06:48;;;;;;;14.30;12.80;;;23.30;46.30;;;;;;4398463;60;21062;-23
2021/05/07 03:11:49;;;;;;;14.23;12.73;;;23.30;46.30;;;;;;4435310;60;21051;-24
2021/05/07 03:16:51;;;;;;;13.73;12.27;;;23.30;46.30;;;;;;4388003;64;21080;-25
2021/05/07 03:21:52;;;;;;;13.93;11.93;;;23.30;46.20;;;;;;4398996;60;21561;-27
2021/05/07 03:26:53;;;;;;;13.82;12.07;;;23.30;46.30;;;;;;4394705;60;21067;-26
2021/05/07 03:31:53;;;;;;;13.98;12.35;;;23.30;46.20;;;;;;4407980;60;21576;-27
2021/05/07 03:36:54;;;;;;;13.68;12.20;;;23.30;46.20;;;;;;4398854;60;21052;-27
2021/05/07 03:41:58;;;;;;;13.95;12.37;;;23.30;46.90;;;;;;4454415;60;21470;-23
2021/05/07 03:46:58;;;;;;;14.48;12.35;;;23.30;46.20;;;;;;4398087;60;21076;-25
2021/05/07 03:52:01;;;;;;;12.80;11.38;;;23.30;46.20;;;;;;4389712;60;21550;-28
2021/05/07 03:57:02;;;;;;;15.05;12.88;;;23.30;46.20;;;;;;4388284;60;21502;-27
2021/05/07 04:02:02;;;;;;;13.52;11.52;;;23.30;46.30;;;;;;4387596;64;21076;-27
2021/05/07 04:07:03;;;;;;;12.65;11.35;;;23.30;46.30;;;;;;4399713;60;21039;-27
2021/05/07 04:12:17;;;;;;;13.10;10.93;;;23.30;46.30;;;;;;4402377;60;21120;-27
2021/05/07 04:17:18;;;;;;;13.85;11.65;;;23.30;46.30;;;;;;4409292;60;21557;-26
2021/05/07 04:22:19;;;;;;;13.07;11.68;;;23.20;46.30;;;;;;4398868;60;21052;-27
2021/05/07 04:27:21;;;;;;;12.85;11.02;;;23.30;46.30;;;;;;4393306;60;21119;-22
2021/05/07 04:32:22;;;;;;;13.00;10.98;;;23.20;46.30;;;;;;4446022;60;21139;-26
2021/05/07 04:37:23;;;;;;;12.43;10.85;;;23.30;46.40;;;;;;4420695;60;21063;-26
2021/05/07 04:42:24;;;;;;;13.23;11.27;;;23.20;46.40;;;;;;4402252;60;22259;-24
2021/05/07 04:47:24;;;;;;;11.45;10.25;;;23.20;46.40;;;;;;4403252;60;21128;-24
2021/05/07 04:52:25;;;;;;;11.95;10.55;;;23.20;46.80;;;;;;4430925;60;21045;-26
2021/05/07 04:57:28;;;;;;;13.20;10.82;;;23.20;46.40;;;;;;4426309;60;21084;-25
2021/05/07 05:02:29;;;;;;;10.95;9.73;;;23.20;46.40;;;;;;4428439;60;22276;-27
2021/05/07 05:07:30;;;;;;;13.48;9.65;;;23.20;46.40;;;;;;4417499;60;22351;-22
2021/05/07 05:12:31;;;;;;;12.95;10.30;;;23.20;46.40;;;;;;4425406;60;21090;-24
2021/05/07 05:17:32;;;;;;;12.02;9.82;;;23.20;46.30;;;;;;4388081;64;21104;-24
2021/05/07 05:22:32;;;;;;;10.70;9.60;;;23.20;46.30;;;;;;4442382;60;21056;-26
2021/05/07 05:27:34;;;;;;;12.95;10.23;;;23.20;46.30;;;;;;4401631;60;21099;-23
2021/05/07 05:32:36;;;;;;;12.07;10.38;;;23.20;46.30;;;;;;4393212;60;21144;-25
2021/05/07 05:37:37;;;;;;;11.68;10.45;;;23.20;46.30;;;;;;4426785;60;22040;-27
2021/05/07 05:42:38;;;;;;;11.23;9.20;;;23.20;46.30;;;;;;4424050;60;21141;-25
2021/05/07 05:47:38;;;;;;;12.37;9.90;;;23.20;46.30;;;;;;4404432;60;21103;-28
2021/05/07 05:52:39;;;;;;;12.45;10.23;;;23.20;46.30;;;;;;4410146;60;21728;-22
2021/05/07 05:57:40;;;;;;;11.63;9.82;;;23.20;46.30;;;;;;4404083;60;21087;-25
2021/05/07 06:02:41;;;;;;;12.45;9.80;;;23.20;46.30;;;;;;4417974;60;21115;-23
2021/05/07 06:07:42;;;;;;;10.55;9.40;;;23.20;46.30;;;;;;4395351;60;21569;-26
2021/05/07 06:12:45;;;;;;;13.10;10.13;;;23.20;46.30;;;;;;4426379;60;21060;-25
2021/05/07 06:17:46;;;;;;;11.15;9.90;;;23.20;46.30;;;;;;4392901;60;21139;-25
2021/05/07 06:22:48;;;;;;;11.38;10.18;;;23.20;46.30;;;;;;4423865;60;21120;-24
2021/05/07 06:27:49;;;;;;;12.07;10.52;;;23.20;46.30;;;;;;4387787;64;21509;-27
2021/05/07 06:32:50;;;;;;;12.63;10.75;;;23.20;46.30;;;;;;4417833;60;21530;-25
2021/05/07 06:37:51;;;;;;;11.63;10.43;;;23.10;46.40;;;;;;4397414;60;21036;-24
2021/05/07 06:42:52;;;;;;;14.15;11.07;;;23.20;46.40;;;;;;4394597;60;21538;-26
2021/05/07 06:47:53;;;;;;;12.85;10.88;;;23.20;46.40;;;;;;4419464;60;21095;-24
2021/05/07 06:52:53;;;;;;;13.15;10.68;;;23.20;46.40;;;;;;4423354;60;21084;-27
2021/05/07 06:57:54;;;;;;;12.70;11.02;;;23.20;46.40;;;;;;4422196;60;21108;-28
2021/05/07 07:02:55;;;;;;;13.88;11.90;;;23.20;46.40;;;;;;4437151;60;21135;-27
2021/05/07 07:07:56;;;;;;;38.95;28.00;;;23.20;46.40;;;;;;4405548;60;21497;-25
2021/05/07 07:12:57;;;;;;;61.30;39.72;;;23.20;46.40;;;;;;4400382;60;21060;-26
2021/05/07 07:17:57;;;;;;;62.72;37.42;;;23.20;46.30;;;;;;4422283;60;21040;-26
2021/05/07 07:22:59;;;;;;;58.35;37.40;;;23.20;46.60;;;;;;4395031;60;21083;-20
2021/05/07 07:28:03;;;;;;;60.78;35.65;;;23.20;46.70;;;;;;4399858;60;21598;-21
2021/05/07 07:33:04;;;;;;;61.20;38.65;;;23.20;46.80;;;;;;4423609;60;21097;-25
2021/05/07 07:38:05;;;;;;;62.50;37.97;;;23.20;47.00;;;;;;4399391;60;21020;-23
2021/05/07 07:43:07;;;;;;;56.95;37.55;;;23.20;47.10;;;;;;4395828;60;21122;-25
2021/05/07 07:48:09;;;;;;;51.88;32.60;;;23.20;47.30;;;;;;4409878;60;21144;-27
2021/05/07 07:53:10;;;;;;;47.30;30.85;;;23.20;47.30;;;;;;4397165;60;21052;-26
2021/05/07 07:58:11;;;;;;;47.55;31.10;;;23.30;47.20;;;;;;4411350;60;21039;-25
2021/05/07 08:03:12;;;;;;;45.63;30.95;;;23.30;47.10;;;;;;4394588;60;21059;-26
2021/05/07 08:08:13;;;;;;;44.08;31.65;;;23.30;47.10;;;;;;4406027;60;21637;-24
2021/05/07 08:13:13;;;;;;;45.17;29.05;;;23.30;47.10;;;;;;4416622;60;21108;-26
2021/05/07 08:18:15;;;;;;;44.95;29.42;;;23.30;47.20;;;;;;4426119;60;21550;-26
2021/05/07 08:23:16;;;;;;;48.10;31.08;;;23.40;47.40;;;;;;4392636;60;21552;-25
2021/05/07 08:28:17;;;;;;;53.72;40.83;;;23.40;47.90;;;;;;4393021;60;21040;-24
2021/05/07 08:33:17;;;;;;;59.33;42.10;;;23.50;48.00;;;;;;4455681;60;21116;-24
2021/05/07 08:38:18;;;;;;;56.42;42.62;;;23.50;48.10;;;;;;4398276;60;21059;-26
2021/05/07 08:43:19;;;;;;;63.25;43.67;;;23.50;48.20;;;;;;4433516;60;21068;-26
2021/05/07 08:48:20;;;;;;;62.55;46.17;;;23.50;48.20;;;;;;4396550;60;21553;-26
2021/05/07 08:53:23;;;;;;;68.70;42.72;;;23.50;48.10;;;;;;4397392;60;21152;-32
2021/05/07 08:58:24;;;;;;;51.37;38.00;;;23.50;47.70;;;;;;4394829;60;21353;-25
2021/05/07 09:03:25;;;;;;;49.72;36.90;;;23.50;47.40;;;;;;4411157;60;21247;-25
2021/05/07 09:08:30;;;;;;;48.55;35.13;;;23.50;46.60;;;;;;4397917;60;21131;-27
2021/05/07 09:13:31;;;;;;;42.45;32.50;;;23.50;46.80;;;;;;4409550;60;21573;-24
2021/05/07 09:18:46;;;;;;;41.25;29.05;;;23.60;46.70;;;;;;4388018;60;21526;-25
2021/05/07 09:23:51;;;;;;;45.53;32.65;;;23.60;45.90;;;;;;4392934;60;21068;-23
2021/05/07 09:28:58;;;;;;;36.20;27.75;;;23.60;45.80;;;;;;4387328;60;21107;-25
2021/05/07 09:34:05;;;;;;;37.78;28.10;;;23.60;45.00;;;;;;4409682;60;21148;-25
2021/05/07 09:39:14;;;;;;;29.50;23.62;;;23.60;44.50;;;;;;4447414;60;21541;-27
2021/05/07 09:44:25;;;;;;;27.55;22.02;;;23.60;44.40;;;;;;4403231;60;21088;-24
2021/05/07 09:49:29;;;;;;;29.65;21.20;;;23.60;44.10;;;;;;4396676;60;21064;-24
2021/05/07 09:54:31;;;;;;;29.75;20.50;;;23.60;44.00;;;;;;4390470;60;21536;-27
2021/05/07 09:59:32;;;;;;;29.55;21.50;;;23.60;43.90;;;;;;4398891;60;21051;-24
2021/05/07 10:04:33;;;;;;;31.65;23.33;;;23.60;43.70;;;;;;4402710;60;21171;-24
2021/05/07 10:09:36;;;;;;;38.90;25.80;;;23.60;43.50;;;;;;4386943;64;21052;-25
2021/05/07 10:14:45;;;;;;;30.75;26.20;;;23.60;43.30;;;;;;4387181;64;21646;-23
2021/05/07 10:19:45;;;;;;;38.13;28.30;;;23.70;43.30;;;;;;4407294;60;21032;-25
2021/05/07 10:24:47;;;;;;;40.70;31.58;;;23.70;43.30;;;;;;4399429;60;21060;-24
2021/05/07 10:29:59;;;;;;;43.33;32.45;;;23.70;43.30;;;;;;4393418;60;21501;-26
2021/05/07 10:35:00;;;;;;;47.10;33.90;;;23.70;43.20;;;;;;4434768;60;21566;-24
2021/05/07 10:40:00;;;;;;;50.38;36.58;;;23.70;43.30;;;;;;4399832;60;21135;-28
2021/05/07 10:45:02;;;;;;;64.37;43.50;;;23.80;43.40;;;;;;4412748;60;21116;-22
2021/05/07 10:50:16;;;;;;;70.95;47.88;;;23.80;43.50;;;;;;4449741;60;21557;-24
2021/05/07 10:55:17;;;;;;;78.18;54.97;;;23.80;43.60;;;;;;4411099;60;21546;-25
2021/05/07 11:00:18;;;;;;;89.40;55.88;;;23.80;43.60;;;;;;4387660;64;21079;-24
2021/05/07 11:08:50;;;;;;;86.43;57.15;;;23.80;43.60;;;;;;4406061;60;21051;-21
2021/05/07 11:13:51;;;;;;;91.37;62.53;;;23.80;43.40;;;;;;4390533;60;21020;-22
2021/05/07 11:18:52;;;;;;;91.75;60.63;;;23.90;43.40;;;;;;4389247;60;21633;-27
2021/05/07 11:23:53;;;;;;;82.72;58.38;;;23.90;44.10;;;;;;4443042;60;21538;-26
2021/05/07 11:28:54;;;;;;;76.62;55.65;;;23.90;43.50;;;;;;4391877;60;21071;-25
2021/05/07 11:33:54;;;;;;;86.22;56.92;;;23.90;43.50;;;;;;4407442;60;21035;-26
2021/05/07 11:38:55;;;;;;;77.47;55.85;;;23.90;44.30;;;;;;4399995;60;21035;-24
2021/05/07 11:44:07;;;;;;;70.28;53.78;;;23.90;43.70;;;;;;4387431;64;21080;-24
2021/05/07 11:49:10;;;;;;;76.25;54.63;;;23.90;43.70;;;;;;4409537;60;21151;-21
2021/05/07 11:54:11;;;;;;;74.97;53.45;;;23.90;43.80;;;;;;4411987;60;21044;-25
2021/05/07 11:59:20;;;;;;;73.87;50.53;;;23.90;43.90;;;;;;4402844;60;21064;-24
2021/05/07 12:04:25;;;;;;;71.22;50.20;;;23.90;44.30;;;;;;4399735;60;21541;-24
2021/05/07 12:09:26;;;;;;;71.55;51.22;;;23.90;44.50;;;;;;4389913;60;21190;-24
2021/05/07 12:14:36;;;;;;;71.60;50.97;;;23.90;44.80;;;;;;4401229;60;21048;-27
2021/05/07 12:19:37;;;;;;;68.68;49.35;;;24.00;45.10;;;;;;4422272;60;21509;-25
2021/05/07 12:24:37;;;;;;;69.22;51.30;;;24.00;45.40;;;;;;4391353;60;21081;-24
2021/05/07 12:29:38;;;;;;;66.75;48.65;;;24.00;46.10;;;;;;4400063;60;21067;-24
2021/05/07 12:34:39;;;;;;;65.32;47.62;;;24.00;46.30;;;;;;4395078;60;21079;-25
2021/05/07 12:39:40;;;;;;;61.83;47.03;;;24.10;46.00;;;;;;4438147;60;21549;-25
2021/05/07 12:44:41;;;;;;;59.88;46.30;;;24.10;46.10;;;;;;4390476;60;21088;-25
2021/05/07 12:49:42;;;;;;;64.28;46.72;;;24.10;46.20;;;;;;4388040;60;21060;-24
2021/05/07 12:54:43;;;;;;;64.62;47.58;;;24.10;46.30;;;;;;4400508;60;21076;-25
2021/05/07 12:59:43;;;;;;;60.47;45.22;;;24.00;46.40;;;;;;4403175;60;21402;-23
2021/05/07 13:04:44;;;;;;;60.80;46.03;;;24.10;46.60;;;;;;4432405;60;21067;-24
2021/05/07 13:09:45;;;;;;;57.58;43.15;;;24.10;46.80;;;;;;4427554;60;21051;-25
2021/05/07 13:14:46;;;;;;;58.83;44.95;;;24.10;46.90;;;;;;4404265;60;21071;-20
2021/05/07 13:19:47;;;;;;;56.25;43.38;;;24.10;46.90;;;;;;4430268;60;21047;-27
2021/05/07 13:24:48;;;;;;;59.30;41.78;;;24.10;47.20;;;;;;4400549;60;21100;-28
2021/05/07 13:29:50;;;;;;;54.75;41.05;;;24.10;47.70;;;;;;4394299;60;21052;-21
2021/05/07 13:34:51;;;;;;;54.22;41.42;;;24.10;47.90;;;;;;4387815;64;21067;-25
2021/05/07 13:39:52;;;;;;;54.35;41.10;;;24.10;48.00;;;;;;4469600;60;21538;-24
2021/05/07 13:44:53;;;;;;;50.85;40.90;;;24.10;48.00;;;;;;4392151;60;21160;-24
2021/05/07 13:49:54;;;;;;;54.42;40.83;;;24.10;48.10;;;;;;4404279;60;21051;-26
2021/05/07 13:54:54;;;;;;;50.05;39.38;;;24.10;48.10;;;;;;4387596;60;21529;-27
2021/05/07 13:59:55;;;;;;;53.35;39.15;;;24.10;48.20;;;;;;4387115;64;21526;-25
2021/05/07 14:04:56;;;;;;;47.97;39.13;;;24.10;48.20;;;;;;4408689;60;21056;-26
2021/05/07 14:09:57;;;;;;;50.17;39.28;;;24.00;48.20;;;;;;4387687;64;21600;-26
2021/05/07 14:14:58;;;;;;;50.00;39.45;;;24.00;48.20;;;;;;4394990;60;21593;-26
2021/05/07 14:19:59;;;;;;;49.45;39.50;;;23.90;48.20;;;;;;4388805;64;21143;-23
2021/05/07 14:24:59;;;;;;;49.22;39.25;;;23.90;48.30;;;;;;4400813;60;21104;-22
2021/05/07 14:30:00;;;;;;;48.40;39.53;;;23.90;48.30;;;;;;4398635;60;21103;-22
2021/05/07 14:35:01;;;;;;;47.88;38.65;;;23.90;48.30;;;;;;4388728;60;21059;-22
2021/05/07 14:40:05;;;;;;;51.65;40.10;;;23.80;48.30;;;;;;4408715;60;21056;-23
2021/05/07 14:45:08;;;;;;;53.97;43.13;;;23.80;48.30;;;;;;4401810;60;21565;-25
2021/05/07 14:50:11;;;;;;;48.72;38.50;;;23.80;48.30;;;;;;4401445;60;21059;-27
2021/05/07 14:55:13;;;;;;;51.00;40.95;;;23.70;48.20;;;;;;4387897;60;21032;-26
2021/05/07 15:00:15;;;;;;;51.53;41.22;;;23.70;48.20;;;;;;4387140;64;21067;-25
2021/05/07 15:05:15;;;;;;;48.58;39.83;;;23.70;48.20;;;;;;4397362;60;21505;-26
2021/05/07 15:10:16;;;;;;;50.05;40.38;;;23.70;48.10;;;;;;4396987;60;21116;-24
2021/05/07 15:15:19;;;;;;;51.35;40.12;;;23.70;48.10;;;;;;4398255;60;21104;-26
2021/05/07 15:20:20;;;;;;;48.40;39.95;;;23.70;48.10;;;;;;4396652;60;21573;-23
2021/05/07 15:25:21;;;;;;;47.85;39.30;;;23.70;48.10;;;;;;4390226;60;21586;-24
2021/05/07 15:30:22;;;;;;;52.50;42.95;;;23.70;48.10;;;;;;4415849;60;21036;-26
2021/05/07 15:35:22;;;;;;;50.53;42.78;;;23.60;48.00;;;;;;4446749;60;21096;-26
2021/05/07 15:40:23;;;;;;;45.67;38.75;;;23.70;48.70;;;;;;4416380;60;21044;-24
2021/05/07 15:45:24;;;;;;;45.97;38.05;;;23.60;48.00;;;;;;4405944;60;21076;-27
2021/05/07 15:50:25;;;;;;;46.17;38.45;;;23.60;48.00;;;;;;4388539;60;21082;-27
2021/05/07 15:55:26;;;;;;;48.08;39.33;;;23.60;48.00;;;;;;4412833;60;21107;-27
2021/05/07 16:00:27;;;;;;;48.65;39.22;;;23.60;48.00;;;;;;4398487;60;21047;-27
2021/05/07 16:05:30;;;;;;;51.58;40.65;;;23.60;48.00;;;;;;4441739;60;21122;-26
2021/05/07 16:10:32;;;;;;;49.95;41.37;;;23.60;48.00;;;;;;4388285;60;21582;-26
2021/05/07 16:15:35;;;;;;;47.88;39.42;;;23.60;48.00;;;;;;4393747;60;22093;-27
2021/05/07 16:20:36;;;;;;;47.95;38.30;;;23.60;48.10;;;;;;4409536;60;21570;-25
2021/05/07 16:25:38;;;;;;;46.63;37.33;;;23.60;48.10;;;;;;4414046;60;21071;-27
2021/05/07 16:30:38;;;;;;;46.67;37.08;;;23.60;48.00;;;;;;4388515;64;21064;-26
2021/05/07 16:35:41;;;;;;;46.03;39.15;;;23.60;48.10;;;;;;4403041;60;21518;-25
2021/05/07 16:40:42;;;;;;;46.95;38.58;;;23.60;48.10;;;;;;4401273;60;21526;-27
2021/05/07 16:45:43;;;;;;;45.65;38.30;;;23.60;48.20;;;;;;4413071;60;21076;-27
2021/05/07 16:50:44;;;;;;;43.17;36.10;;;23.60;48.10;;;;;;4387347;64;21056;-26
2021/05/07 16:55:45;;;;;;;43.28;37.25;;;23.50;48.10;;;;;;4391200;60;21136;-24
2021/05/07 17:00:46;;;;;;;46.72;37.50;;;23.50;48.10;;;;;;4391429;60;21052;-27
2021/05/07 17:05:47;;;;;;;49.00;39.17;;;23.60;48.20;;;;;;4429551;60;21051;-23
2021/05/07 17:10:47;;;;;;;47.35;38.05;;;23.60;48.20;;;;;;4392078;60;21100;-27
2021/05/07 17:15:49;;;;;;;44.30;37.20;;;23.60;48.20;;;;;;4403254;60;21104;-25
2021/05/07 17:20:50;;;;;;;45.60;38.20;;;23.50;48.20;;;;;;4402901;60;21163;-25
2021/05/07 17:25:51;;;;;;;51.78;41.88;;;23.60;48.20;;;;;;4391197;60;21052;-26
2021/05/07 17:30:52;;;;;;;44.83;37.47;;;23.60;48.20;;;;;;4387849;64;21055;-27
2021/05/07 17:35:53;;;;;;;42.62;36.38;;;23.50;48.20;;;;;;4396236;60;21091;-26
2021/05/07 17:40:54;;;;;;;44.28;37.10;;;23.50;48.20;;;;;;4392656;60;21063;-24
2021/05/07 17:45:55;;;;;;;45.63;39.13;;;23.50;48.20;;;;;;4429539;60;21613;-28
2021/05/07 17:50:56;;;;;;;44.50;37.22;;;23.60;48.30;;;;;;4396737;60;21606;-24
2021/05/07 17:55:56;;;;;;;45.15;37.58;;;23.50;48.20;;;;;;4390027;60;21044;-25
2021/05/07 18:00:57;;;;;;;46.00;38.72;;;23.50;48.20;;;;;;4389486;60;21084;-29
2021/05/07 18:05:58;;;;;;;44.50;36.53;;;23.50;48.20;;;;;;4393080;60;21131;-25
2021/05/07 18:10:59;;;;;;;44.80;38.42;;;23.50;48.20;;;;;;4418537;60;21044;-21
2021/05/07 18:16:10;;;;;;;43.70;36.97;;;23.50;48.30;;;;;;4406538;60;21048;-27
2021/05/07 18:21:11;;;;;;;42.90;37.63;;;23.50;48.20;;;;;;4407183;60;21056;-25
2021/05/07 18:26:12;;;;;;;42.58;36.92;;;23.50;48.20;;;;;;4387366;64;21040;-25
2021/05/07 18:31:16;;;;;;;42.50;36.60;;;23.50;48.30;;;;;;4392982;60;21190;-24
2021/05/07 18:36:17;;;;;;;46.03;38.45;;;23.50;48.20;;;;;;4403623;60;21529;-27
2021/05/07 18:41:17;;;;;;;46.05;37.53;;;23.50;48.30;;;;;;4395599;60;21048;-24
2021/05/07 18:46:18;;;;;;;44.42;37.72;;;23.40;48.10;;;;;;4439391;60;21083;-27
2021/05/07 18:51:19;;;;;;;42.92;37.00;;;23.50;48.10;;;;;;4387730;64;21040;-26
2021/05/07 18:56:20;;;;;;;44.38;37.05;;;23.40;48.10;;;;;;4410003;60;21538;-27
2021/05/07 19:01:21;;;;;;;46.25;37.72;;;23.50;48.10;;;;;;4390216;60;21506;-26
2021/05/07 19:06:22;;;;;;;43.35;36.42;;;23.50;48.20;;;;;;4410107;60;21048;-25
2021/05/07 19:11:23;;;;;;;42.15;36.60;;;23.40;48.00;;;;;;4424108;60;21586;-27
2021/05/07 19:16:24;;;;;;;40.33;34.60;;;23.40;48.00;;;;;;4414206;60;21116;-24
2021/05/07 19:21:26;;;;;;;40.60;35.75;;;23.40;48.00;;;;;;4395375;60;21071;-26
2021/05/07 19:26:27;;;;;;;40.80;34.30;;;23.40;48.00;;;;;;4417698;60;21607;-25
2021/05/07 19:31:28;;;;;;;40.22;35.22;;;23.40;47.90;;;;;;4423848;60;21047;-27
2021/05/07 19:36:29;;;;;;;40.60;35.65;;;23.40;47.90;;;;;;4419233;60;21514;-26
2021/05/07 19:41:30;;;;;;;40.47;35.03;;;23.40;48.00;;;;;;4418507;60;21059;-24
2021/05/07 19:46:31;;;;;;;41.03;34.88;;;23.40;47.90;;;;;;4388859;60;21083;-27
2021/05/07 19:51:33;;;;;;;41.33;35.28;;;23.40;47.90;;;;;;4440941;60;21385;-26
2021/05/07 19:56:34;;;;;;;37.00;32.63;;;23.50;47.90;;;;;;4418223;60;21532;-26
2021/05/07 20:01:34;;;;;;;38.78;33.45;;;23.40;47.90;;;;;;4418521;60;21109;-25
2021/05/07 20:06:35;;;;;;;37.97;32.20;;;23.40;47.80;;;;;;4403502;60;21067;-26
2021/05/07 20:11:36;;;;;;;37.13;33.00;;;23.40;47.80;;;;;;4416544;60;21044;-24
2021/05/07 20:16:37;;;;;;;35.42;31.45;;;23.40;47.80;;;;;;4390375;60;21035;-24
2021/05/07 20:21:38;;;;;;;37.83;33.60;;;23.40;47.80;;;;;;4399681;60;21103;-27
2021/05/07 20:26:39;;;;;;;35.83;31.92;;;23.40;47.80;;;;;;4422948;60;21100;-27
2021/05/07 20:31:40;;;;;;;34.10;30.40;;;23.40;47.80;;;;;;4462981;60;21035;-24
2021/05/07 20:36:41;;;;;;;34.30;30.37;;;23.40;47.70;;;;;;4389805;60;21067;-26
2021/05/07 20:41:41;;;;;;;34.95;31.17;;;23.40;47.70;;;;;;4398971;60;21089;-26
2021/05/07 20:46:42;;;;;;;34.92;30.10;;;23.40;47.70;;;;;;4416796;60;21060;-25
2021/05/07 20:51:43;;;;;;;31.70;28.20;;;23.40;47.70;;;;;;4400930;60;21566;-25
2021/05/07 20:56:45;;;;;;;32.50;28.42;;;23.40;47.70;;;;;;4387643;64;21091;-28
2021/05/07 21:01:46;;;;;;;30.62;27.23;;;23.40;47.70;;;;;;4443823;60;21533;-26
2021/05/07 21:06:48;;;;;;;34.28;29.67;;;23.40;47.70;;;;;;4461551;60;21052;-25
2021/05/07 21:11:49;;;;;;;32.35;27.67;;;23.40;47.70;;;;;;4388042;64;21123;-28
2021/05/07 21:16:50;;;;;;;30.95;27.27;;;23.40;47.70;;;;;;4398031;60;21039;-24
2021/05/07 21:21:51;;;;;;;29.12;26.00;;;23.40;47.70;;;;;;4389024;60;21092;-22
2021/05/07 21:26:51;;;;;;;29.75;26.23;;;23.40;47.70;;;;;;4455987;60;21517;-29
2021/05/07 21:31:52;;;;;;;29.23;26.02;;;23.40;47.70;;;;;;4392175;60;21023;-26
2021/05/07 21:36:53;;;;;;;31.35;27.02;;;23.40;47.70;;;;;;4388381;64;21036;-25
2021/05/07 21:41:54;;;;;;;29.55;26.15;;;23.40;47.70;;;;;;4415612;60;21568;-25
2021/05/07 21:46:55;;;;;;;29.23;25.75;;;23.40;47.80;;;;;;4451293;60;21102;-24
2021/05/07 21:51:56;;;;;;;27.70;24.70;;;23.40;47.70;;;;;;4388120;64;21088;-26
2021/05/07 21:56:56;;;;;;;28.25;24.90;;;23.40;47.70;;;;;;4402219;60;22240;-25
2021/05/07 22:01:57;;;;;;;26.42;23.60;;;23.40;47.50;;;;;;4401955;60;21083;-25
2021/05/07 22:06:58;;;;;;;27.25;24.30;;;23.40;47.80;;;;;;4407466;60;21112;-27
2021/05/07 22:11:59;;;;;;;28.45;25.45;;;23.40;47.70;;;;;;4425774;60;21047;-26
2021/05/07 22:17:00;;;;;;;28.23;24.30;;;23.30;47.60;;;;;;4421575;60;21104;-24
2021/05/07 22:22:00;;;;;;;26.75;23.83;;;23.40;47.90;;;;;;4428010;60;21152;-24
2021/05/07 22:27:03;;;;;;;25.55;22.67;;;23.30;47.80;;;;;;4401229;60;21518;-27
2021/05/07 22:32:04;;;;;;;26.85;22.73;;;23.40;47.80;;;;;;4406951;60;21076;-22
2021/05/07 22:37:05;;;;;;;25.25;22.42;;;23.30;47.70;;;;;;4402780;60;21052;-25
2021/05/07 22:42:08;;;;;;;24.05;21.45;;;23.30;47.80;;;;;;4430280;60;21136;-22
2021/05/07 22:47:09;;;;;;;25.75;23.05;;;23.30;47.80;;;;;;4395704;60;21577;-25
2021/05/07 22:52:10;;;;;;;23.65;21.12;;;23.30;47.80;;;;;;4402550;60;21051;-24
2021/05/07 22:57:10;;;;;;;25.12;21.73;;;23.40;47.90;;;;;;4401590;60;21060;-25
2021/05/07 23:02:11;;;;;;;24.08;21.42;;;23.40;47.90;;;;;;4389575;60;22001;-21
2021/05/07 23:07:13;;;;;;;23.12;20.62;;;23.40;47.90;;;;;;4423895;60;21071;-25
2021/05/07 23:12:15;;;;;;;22.98;20.10;;;23.30;47.80;;;;;;4447573;60;21637;-26
2021/05/07 23:17:15;;;;;;;22.37;19.98;;;23.30;47.80;;;;;;4454033;60;21048;-26
2021/05/07 23:22:16;;;;;;;23.73;21.05;;;23.30;47.80;;;;;;4393869;60;21057;-25
2021/05/07 23:27:17;;;;;;;23.65;21.15;;;23.30;47.80;;;;;;4386825;64;21096;-26
2021/05/07 23:32:18;;;;;;;20.88;18.65;;;23.30;47.80;;;;;;4396038;60;21115;-24
2021/05/07 23:37:19;;;;;;;20.67;18.48;;;23.30;47.80;;;;;;4408940;60;21609;-25
2021/05/07 23:42:20;;;;;;;21.37;19.08;;;23.30;47.80;;;;;;4402198;60;21136;-25
2021/05/07 23:47:22;;;;;;;22.25;19.08;;;23.30;47.80;;;;;;4394554;60;21115;-25
2021/05/07 23:52:22;;;;;;;21.00;18.73;;;23.30;47.80;;;;;;4400784;60;21557;-26
2021/05/07 23:57:23;;;;;;;18.98;16.98;;;23.30;47.80;;;;;;4397448;60;21064;-26
